Time;durP1;ratioP1;P1;durP2;ratioP2;P2;SDS_P1;SDS_P2;PMS_P1;PMS_P2;Temp;Humidity;BMP_temperature;BMP_pressure;BME280_temperature;BME280_humidity;BME280_pressure;Samples;Min_cycle;Max_cycle;Signal;HPM_P1;HPM_P2
2021/09/14 00:00:42;;;;;;;2.63;2.00;;;10.00;99.90;;;;;;4992192;28;20072;-65
2021/09/14 00:03:07;;;;;;;3.97;2.05;;;10.00;99.90;;;;;;4993556;28;20425;-64
2021/09/14 00:05:33;;;;;;;2.05;1.85;;;10.00;99.90;;;;;;4993542;28;20085;-64
2021/09/14 00:07:58;;;;;;;4.28;2.17;;;10.00;99.90;;;;;;4992085;28;20386;-64
2021/09/14 00:10:24;;;;;;;5.53;1.65;;;10.00;99.90;;;;;;4993547;28;20024;-65
2021/09/14 00:12:49;;;;;;;2.75;2.13;;;10.00;99.90;;;;;;4993238;28;20370;-64
2021/09/14 00:15:15;;;;;;;4.97;1.70;;;10.00;99.90;;;;;;4993293;28;20030;-65
2021/09/14 00:17:40;;;;;;;3.65;1.88;;;10.00;99.90;;;;;;4993233;28;20030;-65
2021/09/14 00:20:07;;;;;;;3.50;2.35;;;10.10;99.90;;;;;;4993375;28;20027;-65
2021/09/14 00:22:32;;;;;;;3.20;1.90;;;10.10;99.90;;;;;;4988905;28;20213;-65
2021/09/14 00:24:58;;;;;;;3.83;1.73;;;10.10;99.90;;;;;;4992615;28;20034;-68
2021/09/14 00:27:23;;;;;;;2.83;2.00;;;10.10;99.90;;;;;;4992826;28;20034;-67
2021/09/14 00:29:49;;;;;;;3.67;1.85;;;10.10;99.90;;;;;;4992940;28;20466;-64
2021/09/14 00:32:14;;;;;;;2.97;1.90;;;10.20;99.90;;;;;;4993112;28;20245;-65
2021/09/14 00:34:40;;;;;;;5.68;2.10;;;10.20;99.90;;;;;;4992927;28;20022;-62
2021/09/14 00:37:06;;;;;;;4.88;1.52;;;10.20;99.90;;;;;;4992042;28;20038;-64
2021/09/14 00:39:31;;;;;;;2.40;1.80;;;10.20;99.90;;;;;;4993135;28;20077;-66
2021/09/14 00:41:57;;;;;;;3.42;1.80;;;10.20;99.90;;;;;;4992968;28;20041;-65
2021/09/14 00:44:22;;;;;;;4.13;2.10;;;10.10;99.90;;;;;;4992748;28;20092;-64
2021/09/14 00:46:48;;;;;;;4.85;2.00;;;10.10;99.90;;;;;;4992766;28;20047;-64
2021/09/14 00:49:14;;;;;;;8.10;1.88;;;10.10;99.90;;;;;;4993055;28;20163;-64
2021/09/14 00:51:40;;;;;;;2.30;1.67;;;10.10;99.90;;;;;;4991665;28;20026;-65
2021/09/14 00:54:16;;;;;;;2.35;1.95;;;10.10;99.90;;;;;;4982000;28;20109;-64
2021/09/14 00:56:42;;;;;;;3.97;1.77;;;10.10;99.90;;;;;;4992903;28;20022;-64
2021/09/14 00:59:09;;;;;;;4.25;2.00;;;10.20;99.90;;;;;;4992714;28;20149;-64
2021/09/14 01:01:34;;;;;;;2.22;1.67;;;10.20;99.90;;;;;;4992768;28;20026;-63
2021/09/14 01:04:00;;;;;;;4.20;1.95;;;10.30;99.90;;;;;;4992843;28;20037;-62
2021/09/14 01:06:26;;;;;;;3.67;2.30;;;10.40;99.90;;;;;;4995474;28;20038;-64
2021/09/14 01:08:51;;;;;;;2.83;1.80;;;10.50;99.90;;;;;;4996526;28;20022;-63
2021/09/14 01:11:17;;;;;;;4.00;1.85;;;10.50;99.90;;;;;;4996664;28;20026;-65
2021/09/14 01:13:43;;;;;;;3.10;1.67;;;10.60;99.90;;;;;;4996093;28;20062;-61
2021/09/14 01:16:12;;;;;;;2.30;1.92;;;10.70;99.90;;;;;;4996301;28;20536;-63
2021/09/14 01:18:39;;;;;;;3.65;1.80;;;10.80;99.90;;;;;;4996674;28;20408;-64
2021/09/14 01:21:05;;;;;;;2.17;1.50;;;10.80;99.90;;;;;;4995179;28;20054;-64
2021/09/14 01:23:30;;;;;;;5.47;1.75;;;10.90;99.90;;;;;;4996022;28;20064;-63
2021/09/14 01:25:56;;;;;;;1.48;1.30;;;10.90;99.90;;;;;;4996280;28;20026;-64
2021/09/14 01:28:22;;;;;;;5.68;1.90;;;10.90;99.90;;;;;;4995866;28;20463;-61
2021/09/14 01:30:47;;;;;;;3.83;1.70;;;11.00;99.90;;;;;;4996281;28;20053;-61
2021/09/14 01:33:15;;;;;;;5.63;2.00;;;11.00;99.90;;;;;;4996151;28;20071;-64
2021/09/14 01:35:41;;;;;;;1.98;1.65;;;11.00;99.90;;;;;;4995742;28;20022;-64
2021/09/14 01:38:06;;;;;;;3.55;1.73;;;11.00;99.90;;;;;;4995542;28;20037;-63
2021/09/14 01:40:32;;;;;;;2.10;1.50;;;11.00;99.90;;;;;;4996183;28;20409;-63
2021/09/14 01:42:57;;;;;;;1.90;1.65;;;11.00;99.90;;;;;;4995789;28;20080;-64
2021/09/14 01:45:23;;;;;;;3.22;1.55;;;11.00;99.90;;;;;;4995805;28;20026;-64
2021/09/14 01:47:48;;;;;;;6.82;2.33;;;10.90;99.90;;;;;;4995682;28;20057;-64
2021/09/14 01:50:15;;;;;;;2.65;1.73;;;10.90;99.90;;;;;;4996069;28;20035;-64
2021/09/14 01:52:41;;;;;;;3.10;1.83;;;10.90;99.90;;;;;;4994788;28;20026;-64
2021/09/14 01:55:10;;;;;;;3.03;1.67;;;10.90;99.90;;;;;;4995817;28;20069;-64
2021/09/14 01:57:38;;;;;;;3.33;1.70;;;10.80;99.90;;;;;;4995724;28;20084;-65
2021/09/14 02:00:09;;;;;;;7.47;1.73;;;10.80;99.90;;;;;;4995858;28;20037;-64
2021/09/14 02:05:18;;;;;;;2.42;1.90;;;10.70;99.90;;;;;;4995935;28;20038;-64
2021/09/14 02:40:53;;;;;;;2.75;1.70;;;10.40;99.90;;;;;;4975725;28;20078;-63
2021/09/14 02:43:39;;;;;;;2.67;2.00;;;10.30;99.90;;;;;;4975341;28;20114;-65
2021/09/14 02:56:20;;;;;;;4.63;1.60;;;10.30;99.90;;;;;;4975500;28;20054;-61
2021/09/14 03:00:04;;;;;;;4.40;1.75;;;10.10;99.90;;;;;;4984348;28;20492;-65
2021/09/14 03:02:29;;;;;;;5.10;1.88;;;10.00;99.90;;;;;;4994757;28;20378;-64
2021/09/14 03:04:56;;;;;;;2.28;1.67;;;10.00;99.90;;;;;;4994509;28;20026;-63
2021/09/14 03:07:22;;;;;;;2.53;1.70;;;10.00;99.90;;;;;;4993682;28;20026;-64
2021/09/14 03:09:47;;;;;;;2.63;1.77;;;9.90;99.90;;;;;;4994321;28;20481;-65
2021/09/14 03:12:12;;;;;;;3.67;1.65;;;10.00;99.90;;;;;;4994603;28;20027;-64
2021/09/14 03:14:38;;;;;;;2.78;1.88;;;9.90;99.90;;;;;;4983762;28;20027;-64
2021/09/14 03:17:04;;;;;;;2.85;1.90;;;9.90;99.90;;;;;;4974963;28;20056;-65
2021/09/14 03:19:29;;;;;;;2.03;1.50;;;10.00;99.90;;;;;;4974892;28;20029;-60
2021/09/14 03:21:54;;;;;;;2.47;1.65;;;10.00;99.90;;;;;;4973993;28;20027;-64
2021/09/14 03:24:20;;;;;;;3.08;1.38;;;10.00;99.90;;;;;;4974771;28;20041;-64
2021/09/14 03:26:45;;;;;;;2.80;2.10;;;10.00;99.90;;;;;;4974753;28;20069;-64
2021/09/14 03:29:11;;;;;;;2.15;1.75;;;10.10;99.90;;;;;;4974533;28;20102;-65
2021/09/14 03:31:38;;;;;;;2.00;1.80;;;10.10;99.90;;;;;;4974596;28;20487;-64
2021/09/14 03:34:03;;;;;;;2.20;1.63;;;10.20;99.90;;;;;;4974531;28;20110;-64
2021/09/14 03:36:29;;;;;;;2.38;1.80;;;10.20;99.90;;;;;;4973782;28;20094;-64
2021/09/14 03:38:54;;;;;;;4.47;2.03;;;10.30;99.90;;;;;;4974420;28;20051;-65
2021/09/14 03:41:20;;;;;;;2.15;1.95;;;10.30;99.90;;;;;;4974504;28;20074;-64
2021/09/14 03:43:45;;;;;;;1.90;1.50;;;10.30;99.90;;;;;;4974261;28;20034;-63
2021/09/14 03:46:11;;;;;;;1.75;1.50;;;10.40;99.90;;;;;;4974158;28;20113;-65
2021/09/14 03:48:36;;;;;;;2.58;1.70;;;10.40;99.90;;;;;;4974365;28;20051;-65
2021/09/14 03:51:02;;;;;;;2.53;1.77;;;10.40;99.90;;;;;;4973298;28;20084;-65
2021/09/14 03:53:28;;;;;;;3.78;2.00;;;10.40;99.90;;;;;;4985237;28;20046;-64
2021/09/14 03:55:54;;;;;;;3.72;1.90;;;10.40;99.90;;;;;;4993591;28;20018;-64
2021/09/14 03:58:20;;;;;;;4.72;1.98;;;10.30;99.90;;;;;;4993606;28;20031;-64
2021/09/14 04:00:51;;;;;;;4.13;2.50;;;10.30;99.90;;;;;;4993467;28;20027;-60
2021/09/14 04:03:20;;;;;;;2.83;2.00;;;10.40;99.90;;;;;;4993469;28;20024;-65
2021/09/14 04:05:59;;;;;;;5.40;1.90;;;10.30;99.90;;;;;;4992429;28;20027;-64
2021/09/14 04:10:50;;;;;;;4.95;2.28;;;10.30;99.90;;;;;;4993335;28;20027;-65
2021/09/14 04:13:15;;;;;;;4.40;2.10;;;10.20;99.90;;;;;;4993393;28;20653;-60
2021/09/14 04:15:41;;;;;;;3.60;2.05;;;10.20;99.90;;;;;;4974442;28;20391;-64
2021/09/14 04:18:09;;;;;;;4.45;2.15;;;10.20;99.90;;;;;;4973866;28;20092;-64
2021/09/14 04:20:35;;;;;;;3.20;2.05;;;10.10;99.90;;;;;;4974336;28;20035;-65
2021/09/14 04:23:01;;;;;;;3.13;1.80;;;10.10;99.90;;;;;;4973373;28;20106;-64
2021/09/14 04:25:26;;;;;;;3.97;2.28;;;10.10;99.90;;;;;;4973772;28;20034;-65
2021/09/14 04:27:52;;;;;;;3.42;2.20;;;10.00;99.90;;;;;;4973826;28;20069;-64
2021/09/14 04:30:17;;;;;;;3.05;1.98;;;10.00;99.90;;;;;;4973726;28;20098;-63
2021/09/14 04:32:43;;;;;;;4.43;2.13;;;9.90;99.90;;;;;;4973844;28;20058;-64
2021/09/14 04:35:09;;;;;;;3.97;2.17;;;9.90;99.90;;;;;;4973684;28;20057;-61
2021/09/14 04:37:34;;;;;;;2.78;1.80;;;9.90;99.90;;;;;;4973015;28;20383;-64
2021/09/14 04:39:59;;;;;;;2.25;2.03;;;9.90;99.90;;;;;;4975402;28;20062;-64
2021/09/14 04:42:25;;;;;;;3.83;2.47;;;9.80;99.90;;;;;;4977892;28;20035;-64
2021/09/14 04:44:50;;;;;;;4.20;2.25;;;9.80;99.90;;;;;;4977667;28;20031;-65
2021/09/14 04:47:16;;;;;;;3.05;2.03;;;9.80;99.90;;;;;;4977202;28;20051;-64
2021/09/14 04:49:41;;;;;;;3.45;2.13;;;9.80;99.90;;;;;;4994637;28;20046;-63
2021/09/14 04:52:07;;;;;;;3.17;2.17;;;9.80;99.90;;;;;;4980864;28;20022;-64
2021/09/14 04:54:37;;;;;;;4.10;2.30;;;9.80;99.90;;;;;;4977239;28;20054;-64
2021/09/14 04:57:04;;;;;;;6.25;2.28;;;9.90;99.90;;;;;;4977278;28;20027;-64
2021/09/14 04:59:30;;;;;;;3.95;2.25;;;9.90;99.90;;;;;;4977144;28;20593;-62
2021/09/14 05:01:55;;;;;;;4.22;2.22;;;9.90;99.90;;;;;;4977565;28;20425;-61
2021/09/14 05:04:21;;;;;;;5.63;2.40;;;9.90;99.90;;;;;;4977184;28;20030;-64
2021/09/14 05:06:47;;;;;;;3.10;2.47;;;10.00;99.90;;;;;;4976119;28;20031;-63
2021/09/14 05:09:12;;;;;;;3.42;2.20;;;10.10;99.90;;;;;;4976944;28;20037;-64
2021/09/14 05:11:38;;;;;;;3.10;2.22;;;10.20;99.90;;;;;;4976961;28;20034;-63
2021/09/14 05:14:03;;;;;;;7.03;2.40;;;10.30;99.90;;;;;;4982690;28;20027;-64
2021/09/14 05:16:29;;;;;;;6.10;2.50;;;10.40;99.90;;;;;;4996361;28;20038;-63
2021/09/14 05:18:54;;;;;;;3.75;2.60;;;10.50;99.90;;;;;;4996176;28;20030;-64
2021/09/14 05:21:20;;;;;;;5.78;2.45;;;10.60;99.90;;;;;;4995149;28;20075;-63
2021/09/14 05:23:45;;;;;;;4.63;2.30;;;10.60;99.90;;;;;;4996278;28;20058;-62
2021/09/14 05:26:12;;;;;;;3.95;2.42;;;10.70;99.90;;;;;;4992162;28;20452;-63
2021/09/14 05:28:38;;;;;;;2.53;2.33;;;10.80;99.90;;;;;;4996119;28;20031;-63
2021/09/14 05:31:06;;;;;;;4.25;2.50;;;10.90;99.90;;;;;;4995832;28;20029;-62
2021/09/14 05:33:33;;;;;;;2.85;1.80;;;11.00;99.90;;;;;;4995718;28;20026;-63
2021/09/14 05:35:59;;;;;;;4.78;2.30;;;11.10;99.90;;;;;;4994475;28;20603;-64
2021/09/14 05:38:26;;;;;;;2.20;2.00;;;11.20;99.90;;;;;;4995682;28;20033;-62
2021/09/14 05:40:56;;;;;;;2.33;1.88;;;11.40;99.90;;;;;;4995737;28;20031;-62
2021/09/14 05:43:23;;;;;;;3.72;2.45;;;11.40;99.90;;;;;;4995671;28;20034;-62
2021/09/14 05:45:49;;;;;;;4.43;2.45;;;11.60;99.90;;;;;;4995687;28;20080;-63
2021/09/14 05:48:15;;;;;;;3.28;2.30;;;11.70;99.90;;;;;;4994561;28;20054;-63
2021/09/14 05:50:41;;;;;;;3.90;2.13;;;11.90;99.90;;;;;;4993450;28;20038;-62
2021/09/14 05:53:06;;;;;;;4.05;2.58;;;12.00;99.90;;;;;;4987116;28;20027;-63
2021/09/14 05:55:36;;;;;;;6.60;3.15;;;12.10;99.90;;;;;;4976036;28;20493;-63
2021/09/14 05:58:02;;;;;;;4.88;2.40;;;12.20;99.90;;;;;;4976208;28;20474;-63
2021/09/14 06:00:28;;;;;;;2.72;2.00;;;12.30;99.90;;;;;;4976165;28;20041;-63
2021/09/14 06:02:53;;;;;;;2.95;1.85;;;12.40;99.90;;;;;;4976309;28;20031;-60
2021/09/14 06:05:19;;;;;;;3.92;1.80;;;12.50;99.90;;;;;;4975831;28;20109;-63
2021/09/14 06:07:45;;;;;;;5.50;2.55;;;12.70;99.90;;;;;;4974678;28;20391;-60
2021/09/14 06:10:11;;;;;;;3.90;2.20;;;12.80;99.90;;;;;;4975695;28;20081;-62
2021/09/14 06:12:37;;;;;;;3.67;1.92;;;13.00;99.90;;;;;;4975985;28;20169;-64
2021/09/14 06:15:03;;;;;;;3.92;2.20;;;13.10;99.90;;;;;;4989835;28;20032;-61
2021/09/14 06:17:28;;;;;;;4.88;2.03;;;13.20;99.90;;;;;;4995257;28;20037;-61
2021/09/14 06:19:54;;;;;;;4.00;1.75;;;13.40;99.90;;;;;;4995249;28;20110;-62
2021/09/14 06:22:20;;;;;;;3.42;1.67;;;13.50;99.90;;;;;;4993596;28;20035;-63
2021/09/14 06:24:47;;;;;;;3.42;1.73;;;13.60;99.90;;;;;;4995316;28;20053;-61
2021/09/14 06:27:13;;;;;;;4.38;2.00;;;13.80;99.90;;;;;;4995017;28;20442;-62
2021/09/14 06:29:38;;;;;;;3.80;1.90;;;14.00;99.90;;;;;;4995279;28;20030;-63
2021/09/14 06:32:07;;;;;;;3.53;1.83;;;14.30;99.90;;;;;;4994944;28;20429;-64
2021/09/14 06:34:36;;;;;;;3.72;2.53;;;15.10;99.90;;;;;;4995031;28;20469;-64
2021/09/14 06:37:02;;;;;;;3.60;1.75;;;15.80;99.90;;;;;;4993494;28;20062;-64
2021/09/14 06:39:28;;;;;;;1.95;1.58;;;16.40;99.90;;;;;;4994961;28;20056;-64
2021/09/14 06:41:54;;;;;;;1.83;1.58;;;16.80;99.90;;;;;;4994866;28;20465;-61
2021/09/14 06:44:20;;;;;;;2.03;1.20;;;17.90;99.90;;;;;;4994735;28;20061;-64
2021/09/14 06:46:45;;;;;;;2.65;1.10;;;19.50;99.90;;;;;;4994600;28;20089;-64
2021/09/14 06:49:11;;;;;;;3.17;1.55;;;20.10;99.90;;;;;;4994704;28;20030;-60
2021/09/14 06:51:36;;;;;;;2.88;1.20;;;20.80;99.90;;;;;;4993028;28;20496;-64
2021/09/14 06:54:02;;;;;;;2.47;1.60;;;21.60;99.90;;;;;;4994599;28;20033;-63
2021/09/14 06:56:27;;;;;;;3.60;1.40;;;22.40;99.90;;;;;;4994446;28;20377;-62
2021/09/14 06:58:53;;;;;;;1.88;1.52;;;23.10;99.90;;;;;;4994649;28;20025;-63
2021/09/14 07:01:19;;;;;;;1.95;1.42;;;23.60;67.60;;;;;;4994344;28;20027;-64
2021/09/14 07:03:44;;;;;;;2.42;1.33;;;24.10;93.40;;;;;;4994183;28;20041;-60
2021/09/14 07:06:10;;;;;;;6.28;1.67;;;24.80;90.40;;;;;;4992579;28;20477;-64
2021/09/14 07:08:36;;;;;;;3.45;1.35;;;25.30;89.00;;;;;;4994558;28;20058;-64
2021/09/14 07:11:01;;;;;;;2.85;1.10;;;26.10;87.40;;;;;;4994382;28;20037;-64
2021/09/14 07:13:27;;;;;;;5.13;1.40;;;26.50;78.60;;;;;;4994225;28;20037;-64
2021/09/14 07:15:52;;;;;;;3.60;1.60;;;26.90;67.30;;;;;;4994152;28;20030;-64
2021/09/14 07:18:18;;;;;;;3.35;1.35;;;27.40;65.70;;;;;;4994250;28;20072;-61
2021/09/14 07:20:43;;;;;;;3.65;1.58;;;27.80;66.40;;;;;;4992607;28;20385;-64
2021/09/14 07:23:09;;;;;;;3.50;1.52;;;27.60;42.40;;;;;;4994056;28;20033;-64
2021/09/14 07:25:43;;;;;;;6.10;1.98;;;26.60;37.20;;;;;;4993893;28;20033;-62
2021/09/14 07:28:09;;;;;;;4.38;1.60;;;26.00;48.40;;;;;;4993981;28;20069;-64
2021/09/14 07:30:36;;;;;;;5.07;1.27;;;26.10;49.80;;;;;;4993986;28;20462;-65
2021/09/14 07:33:02;;;;;;;3.65;1.40;;;26.40;50.00;;;;;;4993888;28;20401;-63
2021/09/14 07:35:30;;;;;;;3.95;1.60;;;26.50;44.30;;;;;;4993708;28;20031;-64
2021/09/14 07:37:56;;;;;;;2.53;1.10;;;26.60;47.90;;;;;;4992824;28;20018;-65
2021/09/14 07:40:21;;;;;;;4.97;1.40;;;27.00;46.00;;;;;;4993797;28;20065;-64
2021/09/14 07:42:47;;;;;;;4.68;1.50;;;27.20;44.30;;;;;;4993689;28;20026;-62
2021/09/14 07:45:12;;;;;;;3.70;1.35;;;27.10;43.20;;;;;;4993687;28;20030;-61
2021/09/14 07:47:38;;;;;;;4.00;1.02;;;27.50;43.90;;;;;;4993453;28;20039;-61
2021/09/14 07:50:04;;;;;;;2.38;0.90;;;28.20;44.00;;;;;;4993525;28;20030;-60
2021/09/14 07:52:30;;;;;;;2.72;1.23;;;28.80;43.00;;;;;;4992070;28;20029;-62
2021/09/14 07:54:55;;;;;;;4.97;1.40;;;29.10;41.00;;;;;;4993582;28;20382;-60
2021/09/14 07:57:21;;;;;;;1.73;1.15;;;29.40;39.80;;;;;;4993381;28;20034;-61
2021/09/14 07:59:46;;;;;;;3.78;1.30;;;28.90;36.80;;;;;;4993645;28;20034;-61
2021/09/14 08:02:12;;;;;;;3.03;1.10;;;28.90;33.90;;;;;;4993244;28;20037;-61
2021/09/14 08:04:37;;;;;;;2.58;1.00;;;28.50;34.00;;;;;;4993271;28;20073;-58
2021/09/14 08:07:03;;;;;;;1.83;1.10;;;28.60;37.10;;;;;;4991874;28;20405;-61
2021/09/14 08:09:30;;;;;;;2.00;1.15;;;28.50;36.70;;;;;;4993353;28;20050;-61
2021/09/14 08:11:59;;;;;;;1.75;1.02;;;28.60;37.20;;;;;;4993318;28;20061;-62
2021/09/14 08:14:25;;;;;;;3.40;1.52;;;28.70;32.70;;;;;;4992547;28;20061;-62
2021/09/14 08:16:51;;;;;;;2.05;1.10;;;28.50;33.00;;;;;;4993198;28;20414;-62
2021/09/14 08:19:17;;;;;;;4.95;1.55;;;27.60;35.20;;;;;;4993262;28;20030;-61
2021/09/14 08:21:42;;;;;;;3.40;1.00;;;27.30;36.40;;;;;;4991887;28;20050;-59
2021/09/14 08:24:09;;;;;;;3.42;1.23;;;26.70;37.00;;;;;;4993248;28;20027;-61
2021/09/14 08:26:35;;;;;;;5.43;1.27;;;26.50;37.10;;;;;;4992954;28;20042;-62
2021/09/14 08:29:02;;;;;;;3.03;1.15;;;26.50;36.50;;;;;;4993181;28;20045;-61
2021/09/14 08:31:28;;;;;;;2.65;1.08;;;26.30;38.60;;;;;;4992916;28;20018;-61
2021/09/14 08:33:54;;;;;;;1.30;1.00;;;26.60;37.70;;;;;;4992933;28;20101;-59
2021/09/14 08:36:19;;;;;;;3.80;1.00;;;26.60;38.50;;;;;;4991609;28;20110;-61
2021/09/14 08:38:45;;;;;;;2.80;1.23;;;26.10;35.80;;;;;;4993061;28;20142;-60
2021/09/14 08:41:15;;;;;;;2.17;1.35;;;25.50;38.30;;;;;;4993044;28;20014;-58
2021/09/14 08:43:45;;;;;;;2.85;1.30;;;25.40;39.20;;;;;;4992991;28;20053;-61
2021/09/14 08:46:13;;;;;;;2.05;0.98;;;25.50;41.30;;;;;;4992961;28;20093;-61
2021/09/14 08:48:38;;;;;;;2.55;1.25;;;25.70;41.40;;;;;;4992706;28;20046;-61
2021/09/14 08:51:06;;;;;;;1.50;1.00;;;25.20;39.20;;;;;;4991725;28;20076;-61
2021/09/14 08:53:34;;;;;;;1.70;1.02;;;24.90;42.40;;;;;;4992630;28;20034;-61
2021/09/14 08:56:00;;;;;;;1.85;1.30;;;24.70;43.20;;;;;;4993054;28;20037;-58
2021/09/14 08:58:26;;;;;;;2.95;1.10;;;24.50;43.40;;;;;;4992805;28;20379;-62
2021/09/14 09:00:52;;;;;;;2.55;1.42;;;24.20;43.40;;;;;;4992760;28;20034;-59
2021/09/14 09:03:30;;;;;;;3.45;1.13;;;24.20;44.30;;;;;;4992680;28;20039;-58
2021/09/14 09:05:59;;;;;;;2.97;1.08;;;24.10;40.70;;;;;;4991687;28;20061;-59
2021/09/14 09:08:26;;;;;;;1.38;1.02;;;23.80;44.80;;;;;;4992478;28;20034;-62
2021/09/14 09:11:06;;;;;;;1.65;0.80;;;23.90;44.70;;;;;;4992947;28;20022;-61
2021/09/14 09:13:33;;;;;;;2.92;1.20;;;23.80;43.30;;;;;;4990916;28;20018;-61
2021/09/14 09:15:59;;;;;;;1.45;1.10;;;23.80;46.20;;;;;;4973502;28;20027;-61
2021/09/14 09:18:24;;;;;;;1.80;1.00;;;23.90;46.20;;;;;;4973180;28;20529;-61
2021/09/14 09:20:50;;;;;;;3.05;1.50;;;23.90;45.90;;;;;;4972098;28;20049;-62
2021/09/14 09:23:22;;;;;;;2.97;1.33;;;23.80;44.20;;;;;;4973352;28;20373;-59
2021/09/14 09:25:49;;;;;;;5.00;1.50;;;23.30;46.60;;;;;;4974530;28;20026;-62
2021/09/14 09:28:23;;;;;;;4.68;1.30;;;23.30;46.80;;;;;;4976621;28;20438;-62
2021/09/14 09:31:00;;;;;;;3.10;1.27;;;23.30;46.40;;;;;;4976853;28;20023;-62
2021/09/14 09:33:29;;;;;;;1.20;1.10;;;23.40;45.90;;;;;;4976539;28;20537;-61
2021/09/14 09:36:08;;;;;;;3.28;1.20;;;23.60;46.40;;;;;;4975457;28;20022;-62
2021/09/14 09:38:48;;;;;;;3.15;1.20;;;23.30;46.80;;;;;;4976204;28;20570;-58
2021/09/14 09:41:18;;;;;;;6.22;1.90;;;23.40;47.40;;;;;;4976628;28;20418;-61
2021/09/14 09:43:46;;;;;;;2.55;1.40;;;23.10;46.50;;;;;;4976527;28;20506;-62
2021/09/14 09:46:18;;;;;;;2.45;1.40;;;23.10;47.60;;;;;;4976539;28;20427;-59
2021/09/14 09:48:44;;;;;;;3.05;1.10;;;23.20;46.30;;;;;;4976152;28;20055;-61
2021/09/14 09:51:10;;;;;;;3.55;1.10;;;23.30;46.20;;;;;;4975023;28;20081;-63
2021/09/14 09:53:37;;;;;;;5.38;1.40;;;23.40;44.90;;;;;;4987701;28;20066;-64
2021/09/14 09:56:03;;;;;;;1.95;1.15;;;23.40;44.10;;;;;;4995769;28;20030;-62
2021/09/14 09:58:29;;;;;;;1.92;1.33;;;23.40;44.60;;;;;;4995517;28;20084;-63
2021/09/14 10:01:00;;;;;;;3.33;1.20;;;23.30;44.60;;;;;;4995711;28;20113;-64
2021/09/14 10:03:29;;;;;;;2.45;1.38;;;23.20;45.50;;;;;;4995306;28;20030;-62
2021/09/14 10:05:57;;;;;;;2.75;1.67;;;23.30;45.10;;;;;;4994349;28;20037;-62
2021/09/14 10:08:25;;;;;;;1.77;1.10;;;23.30;43.80;;;;;;4995421;28;20422;-62
2021/09/14 10:10:56;;;;;;;2.50;1.23;;;23.30;43.60;;;;;;4995423;28;20398;-62
2021/09/14 10:13:33;;;;;;;1.90;1.30;;;23.20;44.00;;;;;;4995218;28;20019;-64
2021/09/14 10:15:59;;;;;;;3.13;2.00;;;23.20;46.70;;;;;;4975854;28;20019;-64
2021/09/14 10:18:27;;;;;;;1.92;1.40;;;22.90;43.30;;;;;;4975906;28;20031;-64
2021/09/14 10:20:53;;;;;;;2.35;1.25;;;22.60;44.80;;;;;;4974787;28;20031;-62
2021/09/14 10:23:31;;;;;;;2.58;1.25;;;22.30;47.00;;;;;;4975811;28;20438;-64
2021/09/14 10:26:11;;;;;;;3.10;1.55;;;22.20;47.50;;;;;;4975749;28;20023;-64
2021/09/14 10:28:50;;;;;;;2.00;1.20;;;21.90;50.70;;;;;;4975340;28;20031;-62
2021/09/14 10:31:26;;;;;;;2.90;1.55;;;21.80;50.60;;;;;;4975808;28;20424;-64
2021/09/14 10:34:06;;;;;;;2.38;1.20;;;21.70;52.70;;;;;;4975496;28;20146;-63
2021/09/14 10:36:34;;;;;;;2.10;1.10;;;21.70;51.90;;;;;;4974085;28;20026;-64
2021/09/14 10:39:01;;;;;;;2.38;1.27;;;21.60;50.90;;;;;;4974890;28;20421;-64
2021/09/14 10:41:38;;;;;;;1.42;1.30;;;21.70;50.60;;;;;;4975377;28;20027;-64
2021/09/14 10:44:08;;;;;;;2.92;1.73;;;21.70;56.50;;;;;;4975424;28;20045;-61
2021/09/14 10:46:34;;;;;;;5.10;2.15;;;21.50;55.40;;;;;;4976815;28;20019;-63
2021/09/14 10:49:00;;;;;;;2.28;1.55;;;21.30;54.80;;;;;;4974697;28;20094;-64
2021/09/14 10:51:26;;;;;;;4.90;1.33;;;21.20;54.10;;;;;;4973814;28;20062;-61
2021/09/14 10:53:55;;;;;;;1.45;1.10;;;21.30;54.30;;;;;;4989005;28;20015;-64
2021/09/14 10:56:22;;;;;;;4.00;1.58;;;21.40;53.70;;;;;;4994635;28;20026;-64
2021/09/14 10:58:48;;;;;;;2.30;1.35;;;21.40;54.50;;;;;;4994486;28;20051;-63
2021/09/14 11:01:25;;;;;;;2.65;1.40;;;21.50;57.50;;;;;;4994650;28;20027;-64
2021/09/14 11:04:10;;;;;;;1.45;1.23;;;21.50;55.80;;;;;;4994243;28;20178;-64
2021/09/14 11:06:37;;;;;;;3.55;1.30;;;21.60;56.40;;;;;;4992882;28;20069;-64
2021/09/14 11:09:05;;;;;;;3.78;1.60;;;21.40;55.40;;;;;;4994410;28;20481;-64
2021/09/14 11:11:32;;;;;;;3.10;1.60;;;21.40;55.70;;;;;;4994202;28;20385;-64
2021/09/14 11:13:58;;;;;;;1.83;1.40;;;21.20;57.90;;;;;;4988923;28;20055;-65
2021/09/14 11:16:24;;;;;;;2.63;1.20;;;21.20;57.50;;;;;;4974905;28;20070;-64
2021/09/14 11:18:50;;;;;;;5.50;2.20;;;21.30;56.40;;;;;;4974747;28;20434;-64
2021/09/14 11:21:17;;;;;;;2.70;1.25;;;21.30;56.10;;;;;;4973955;28;20443;-64
2021/09/14 11:23:45;;;;;;;3.60;1.40;;;21.30;55.10;;;;;;4974625;28;20042;-64
2021/09/14 11:26:13;;;;;;;2.53;1.30;;;21.30;55.10;;;;;;4974596;28;20031;-64
2021/09/14 11:28:40;;;;;;;3.22;2.30;;;21.40;55.50;;;;;;4974241;28;20049;-64
2021/09/14 11:31:13;;;;;;;5.40;2.30;;;21.10;58.70;;;;;;4974567;28;20030;-62
2021/09/14 11:33:43;;;;;;;4.97;2.05;;;21.00;59.10;;;;;;4973144;28;20383;-65
2021/09/14 11:36:09;;;;;;;2.92;1.45;;;21.00;59.80;;;;;;4973664;28;20022;-64
2021/09/14 11:38:35;;;;;;;2.40;1.60;;;21.00;58.50;;;;;;4974393;28;20031;-64
2021/09/14 11:41:02;;;;;;;2.95;2.03;;;21.10;58.60;;;;;;4974366;28;20494;-64
2021/09/14 11:43:30;;;;;;;3.88;2.03;;;21.10;59.90;;;;;;4974371;28;20027;-64
2021/09/14 11:45:57;;;;;;;5.95;1.77;;;20.90;60.60;;;;;;4974299;28;20035;-64
2021/09/14 11:48:27;;;;;;;3.38;1.48;;;20.90;59.80;;;;;;4973674;28;20035;-64
2021/09/14 11:51:11;;;;;;;3.60;1.92;;;20.90;60.00;;;;;;4972957;28;20026;-61
2021/09/14 11:53:39;;;;;;;3.45;2.05;;;20.90;61.10;;;;;;4985957;28;20034;-64
2021/09/14 11:56:13;;;;;;;4.15;2.17;;;20.90;60.80;;;;;;4993530;28;20023;-65
2021/09/14 11:58:43;;;;;;;2.17;1.73;;;21.00;63.00;;;;;;4993455;28;20034;-64
2021/09/14 12:01:11;;;;;;;5.10;2.15;;;21.00;60.70;;;;;;4993649;28;20026;-65
2021/09/14 12:03:43;;;;;;;6.45;2.13;;;21.00;61.20;;;;;;4993290;28;20034;-64
2021/09/14 12:06:09;;;;;;;4.28;1.80;;;21.10;60.90;;;;;;4992635;28;20117;-61
2021/09/14 12:08:40;;;;;;;4.03;2.45;;;21.20;60.10;;;;;;4989554;28;20113;-64
2021/09/14 12:11:06;;;;;;;3.38;1.70;;;21.20;59.10;;;;;;4993273;28;20033;-65
2021/09/14 12:13:43;;;;;;;4.22;1.75;;;21.20;58.40;;;;;;4993054;28;20027;-64
2021/09/14 12:16:17;;;;;;;3.70;1.90;;;21.30;59.00;;;;;;4992803;28;20492;-64
2021/09/14 12:18:43;;;;;;;4.60;2.25;;;21.30;58.40;;;;;;4993072;28;20038;-64
2021/09/14 12:21:10;;;;;;;6.72;2.08;;;21.30;59.70;;;;;;4991822;28;20065;-64
2021/09/14 12:23:37;;;;;;;6.35;2.03;;;21.30;59.80;;;;;;4992907;28;20041;-64
2021/09/14 12:26:03;;;;;;;5.32;2.42;;;21.30;60.30;;;;;;4993239;28;20022;-60
2021/09/14 12:28:29;;;;;;;3.75;2.13;;;21.10;59.10;;;;;;4992950;28;20496;-63
2021/09/14 12:30:54;;;;;;;2.17;1.92;;;21.00;59.00;;;;;;4993052;28;20031;-60
2021/09/14 12:33:20;;;;;;;4.35;2.10;;;21.10;60.30;;;;;;4993090;28;20463;-62
2021/09/14 12:35:46;;;;;;;4.43;1.80;;;21.20;59.90;;;;;;4991505;28;20357;-65
2021/09/14 12:38:12;;;;;;;2.17;1.50;;;21.30;59.70;;;;;;4993003;28;20425;-62
2021/09/14 12:40:38;;;;;;;1.85;1.48;;;21.40;58.70;;;;;;4992957;28;20030;-62
2021/09/14 12:43:04;;;;;;;5.97;2.17;;;21.60;58.90;;;;;;4992972;28;20031;-64
2021/09/14 12:45:29;;;;;;;2.60;1.80;;;21.60;58.20;;;;;;4992958;28;20081;-64
2021/09/14 12:47:55;;;;;;;4.57;1.52;;;21.70;58.20;;;;;;4992969;28;20034;-64
2021/09/14 12:50:20;;;;;;;4.25;1.85;;;21.80;59.00;;;;;;4992253;28;20033;-65
2021/09/14 12:52:46;;;;;;;3.13;2.28;;;21.80;58.20;;;;;;4991926;28;20022;-62
2021/09/14 12:55:11;;;;;;;2.80;1.50;;;21.80;57.50;;;;;;4992937;28;20050;-66
2021/09/14 12:57:37;;;;;;;2.85;2.45;;;21.90;57.50;;;;;;4990101;28;20035;-64
2021/09/14 13:00:04;;;;;;;4.95;2.33;;;21.80;57.70;;;;;;4992865;28;20478;-63
2021/09/14 13:02:30;;;;;;;4.18;1.95;;;21.80;57.70;;;;;;4996679;28;20042;-64
2021/09/14 13:04:56;;;;;;;3.53;2.13;;;21.60;58.80;;;;;;4996263;28;20064;-64
2021/09/14 13:07:21;;;;;;;2.30;1.52;;;21.50;57.90;;;;;;4995339;28;20458;-64
2021/09/14 13:09:47;;;;;;;2.05;1.65;;;21.50;57.70;;;;;;4996372;28;20106;-64
2021/09/14 13:12:19;;;;;;;3.17;2.28;;;21.50;58.20;;;;;;4996482;28;20505;-64
2021/09/14 13:17:28;;;;;;;1.98;1.77;;;21.40;59.00;;;;;;4977266;28;20110;-64
2021/09/14 13:19:54;;;;;;;3.15;1.55;;;21.50;59.10;;;;;;4976844;28;20109;-64
2021/09/14 13:22:19;;;;;;;2.75;1.75;;;21.50;58.60;;;;;;4975751;28;20069;-64
2021/09/14 13:24:45;;;;;;;3.95;2.25;;;21.60;59.20;;;;;;4976725;28;20054;-64
2021/09/14 13:27:10;;;;;;;4.45;2.20;;;21.60;59.60;;;;;;4976960;28;20497;-65
2021/09/14 13:29:36;;;;;;;5.57;2.28;;;21.50;59.30;;;;;;4976745;28;20567;-63
2021/09/14 13:32:02;;;;;;;3.30;2.33;;;21.40;58.80;;;;;;4976569;28;20026;-63
2021/09/14 13:34:28;;;;;;;2.80;2.10;;;21.40;59.50;;;;;;4976666;28;20030;-63
2021/09/14 13:36:53;;;;;;;3.03;1.80;;;21.40;59.20;;;;;;4975356;28;20377;-64
2021/09/14 13:39:19;;;;;;;3.72;1.85;;;21.30;58.60;;;;;;4976645;28;20114;-64